sensor_id;sensor_type;location;lat;lon;timestamp;temperature;humidity
70867;HTU21D;58487;53.474;49.470;2023-02-15T02:31:48;-8.65;118.99
70867;HTU21D;58487;53.474;49.470;2023-02-15T02:34:33;-8.66;118.99
70867;HTU21D;58487;53.474;49.470;2023-02-15T02:37:26;-8.66;118.99
70867;HTU21D;58487;53.474;49.470;2023-02-15T02:40:30;-8.67;118.99
70867;HTU21D;58487;53.474;49.470;2023-02-15T02:43:11;-8.71;118.99
70867;HTU21D;58487;53.474;49.470;2023-02-15T02:45:57;-8.77;118.99
70867;HTU21D;58487;53.474;49.470;2023-02-15T02:48:27;-8.74;118.99
70867;HTU21D;58487;53.474;49.470;2023-02-15T02:50:54;-8.72;118.99
70867;HTU21D;58487;53.474;49.470;2023-02-15T02:53:20;-8.74;118.99
70867;HTU21D;58487;53.474;49.470;2023-02-15T02:55:51;-8.75;118.99
70867;HTU21D;58487;53.474;49.470;2023-02-15T02:58:36;-8.70;118.99
70867;HTU21D;58487;53.474;49.470;2023-02-15T03:01:20;-8.74;118.99
70867;HTU21D;58487;53.474;49.470;2023-02-15T03:03:49;-8.74;118.99
70867;HTU21D;58487;53.474;49.470;2023-02-15T03:06:36;-8.64;118.99
70867;HTU21D;58487;53.474;49.470;2023-02-15T03:09:12;-8.73;118.99
70867;HTU21D;58487;53.474;49.470;2023-02-15T03:11:46;-8.73;118.99
70867;HTU21D;58487;53.474;49.470;2023-02-15T03:14:14;-8.79;118.99
70867;HTU21D;58487;53.474;49.470;2023-02-15T03:16:43;-8.71;118.99
70867;HTU21D;58487;53.474;49.470;2023-02-15T03:19:13;-8.72;118.99
70867;HTU21D;58487;53.474;49.470;2023-02-15T03:21:48;-8.67;118.99
70867;HTU21D;58487;53.474;49.470;2023-02-15T03:24:43;-8.65;118.99
70867;HTU21D;58487;53.474;49.470;2023-02-15T03:27:20;-8.68;118.99
70867;HTU21D;58487;53.474;49.470;2023-02-15T03:29:53;-8.71;118.99
70867;HTU21D;58487;53.474;49.470;2023-02-15T03:32:21;-8.71;118.99
70867;HTU21D;58487;53.474;49.470;2023-02-15T03:34:48;-8.68;118.99
70867;HTU21D;58487;53.474;49.470;2023-02-15T03:39:59;-8.73;118.99
70867;HTU21D;58487;53.474;49.470;2023-02-15T03:42:49;-8.66;118.99
70867;HTU21D;58487;53.474;49.470;2023-02-15T03:45:30;-8.71;118.99
70867;HTU21D;58487;53.474;49.470;2023-02-15T03:47:58;-8.65;118.99
70867;HTU21D;58487;53.474;49.470;2023-02-15T03:50:35;-8.69;118.99
70867;HTU21D;58487;53.474;49.470;2023-02-15T03:53:26;-8.69;118.99
70867;HTU21D;58487;53.474;49.470;2023-02-15T03:55:55;-8.62;118.99
70867;HTU21D;58487;53.474;49.470;2023-02-15T03:58:22;-8.62;118.99
70867;HTU21D;58487;53.474;49.470;2023-02-15T04:01:33;-8.62;118.99
70867;HTU21D;58487;53.474;49.470;2023-02-15T04:04:21;-8.64;118.99
70867;HTU21D;58487;53.474;49.470;2023-02-15T04:06:48;-8.62;118.99
70867;HTU21D;58487;53.474;49.470;2023-02-15T04:09:14;-8.67;118.99
70867;HTU21D;58487;53.474;49.470;2023-02-15T04:11:59;-8.67;118.99
70867;HTU21D;58487;53.474;49.470;2023-02-15T04:14:25;-8.72;118.99
70867;HTU21D;58487;53.474;49.470;2023-02-15T04:17:09;-8.75;118.99
70867;HTU21D;58487;53.474;49.470;2023-02-15T04:19:35;-8.79;118.99
70867;HTU21D;58487;53.474;49.470;2023-02-15T04:22:20;-8.83;118.99
70867;HTU21D;58487;53.474;49.470;2023-02-15T04:25:05;-8.80;118.99
70867;HTU21D;58487;53.474;49.470;2023-02-15T04:27:40;-8.80;118.99
70867;HTU21D;58487;53.474;49.470;2023-02-15T04:30:07;-8.84;118.99
70867;HTU21D;58487;53.474;49.470;2023-02-15T04:32:34;-8.92;118.99
70867;HTU21D;58487;53.474;49.470;2023-02-15T04:35:00;-8.94;118.99
70867;HTU21D;58487;53.474;49.470;2023-02-15T04:37:26;-8.93;118.99
70867;HTU21D;58487;53.474;49.470;2023-02-15T04:39:52;-8.94;118.99
70867;HTU21D;58487;53.474;49.470;2023-02-15T04:42:18;-9.02;118.99
70867;HTU21D;58487;53.474;49.470;2023-02-15T04:44:45;-8.98;118.99
70867;HTU21D;58487;53.474;49.470;2023-02-15T04:47:11;-8.99;118.99
70867;HTU21D;58487;53.474;49.470;2023-02-15T04:49:37;-8.93;118.99
70867;HTU21D;58487;53.474;49.470;2023-02-15T04:52:03;-8.96;118.99
70867;HTU21D;58487;53.474;49.470;2023-02-15T04:54:29;-8.95;118.99
70867;HTU21D;58487;53.474;49.470;2023-02-15T04:56:55;-8.88;118.99
70867;HTU21D;58487;53.474;49.470;2023-02-15T04:59:21;-8.85;118.99
70867;HTU21D;58487;53.474;49.470;2023-02-15T05:01:47;-8.80;118.99
70867;HTU21D;58487;53.474;49.470;2023-02-15T05:04:13;-8.82;118.99
70867;HTU21D;58487;53.474;49.470;2023-02-15T05:06:39;-8.82;118.99
70867;HTU21D;58487;53.474;49.470;2023-02-15T05:09:05;-8.85;118.99
70867;HTU21D;58487;53.474;49.470;2023-02-15T05:11:31;-8.88;118.99
70867;HTU21D;58487;53.474;49.470;2023-02-15T05:13:57;-8.81;118.99
70867;HTU21D;58487;53.474;49.470;2023-02-15T05:16:24;-8.78;118.99
70867;HTU21D;58487;53.474;49.470;2023-02-15T05:18:51;-8.71;118.99
70867;HTU21D;58487;53.474;49.470;2023-02-15T05:21:17;-8.63;118.99
70867;HTU21D;58487;53.474;49.470;2023-02-15T05:23:43;-8.70;118.99
70867;HTU21D;58487;53.474;49.470;2023-02-15T05:26:21;-8.67;118.99
70867;HTU21D;58487;53.474;49.470;2023-02-15T05:29:06;-8.63;118.99
70867;HTU21D;58487;53.474;49.470;2023-02-15T05:31:33;-8.58;118.99
70867;HTU21D;58487;53.474;49.470;2023-02-15T05:34:00;-8.59;118.99
70867;HTU21D;58487;53.474;49.470;2023-02-15T05:36:26;-8.53;118.99
70867;HTU21D;58487;53.474;49.470;2023-02-15T05:38:52;-8.49;118.99
70867;HTU21D;58487;53.474;49.470;2023-02-15T05:41:18;-8.49;118.99
70867;HTU21D;58487;53.474;49.470;2023-02-15T05:43:44;-8.44;118.99
70867;HTU21D;58487;53.474;49.470;2023-02-15T05:46:11;-8.38;118.99
70867;HTU21D;58487;53.474;49.470;2023-02-15T05:48:38;-8.24;118.99
70867;HTU21D;58487;53.474;49.470;2023-02-15T05:53:32;-8.26;118.99
70867;HTU21D;58487;53.474;49.470;2023-02-15T05:55:59;-8.21;118.99
70867;HTU21D;58487;53.474;49.470;2023-02-15T05:58:26;-8.10;118.99
70867;HTU21D;58487;53.474;49.470;2023-02-15T06:00:53;-8.10;118.99
70867;HTU21D;58487;53.474;49.470;2023-02-15T06:03:19;-8.04;118.99
70867;HTU21D;58487;53.474;49.470;2023-02-15T06:05:45;-7.97;118.99
70867;HTU21D;58487;53.474;49.470;2023-02-15T06:08:11;-7.86;118.99
70867;HTU21D;58487;53.474;49.470;2023-02-15T06:10:37;-7.76;118.99
70867;HTU21D;58487;53.474;49.470;2023-02-15T06:13:06;-7.77;118.99
70867;HTU21D;58487;53.474;49.470;2023-02-15T06:15:32;-7.68;118.99
70867;HTU21D;58487;53.474;49.470;2023-02-15T06:17:58;-7.69;118.99
70867;HTU21D;58487;53.474;49.470;2023-02-15T06:20:24;-7.62;118.99
70867;HTU21D;58487;53.474;49.470;2023-02-15T06:22:50;-7.66;118.99
70867;HTU21D;58487;53.474;49.470;2023-02-15T06:25:16;-7.56;118.99
70867;HTU21D;58487;53.474;49.470;2023-02-15T06:27:46;-7.48;118.99
70867;HTU21D;58487;53.474;49.470;2023-02-15T06:30:15;-7.41;118.99
70867;HTU21D;58487;53.474;49.470;2023-02-15T06:32:41;-7.48;118.99
70867;HTU21D;58487;53.474;49.470;2023-02-15T06:35:08;-7.48;118.99
70867;HTU21D;58487;53.474;49.470;2023-02-15T06:37:42;-7.52;118.99
70867;HTU21D;58487;53.474;49.470;2023-02-15T06:40:10;-7.53;118.99
70867;HTU21D;58487;53.474;49.470;2023-02-15T06:42:36;-7.41;118.99
70867;HTU21D;58487;53.474;49.470;2023-02-15T06:45:03;-7.33;118.99
70867;HTU21D;58487;53.474;49.470;2023-02-15T06:47:29;-7.37;118.99
70867;HTU21D;58487;53.474;49.470;2023-02-15T06:49:55;-7.36;118.99
70867;HTU21D;58487;53.474;49.470;2023-02-15T06:52:23;-7.36;118.99
70867;HTU21D;58487;53.474;49.470;2023-02-15T06:54:50;-7.41;118.99
70867;HTU21D;58487;53.474;49.470;2023-02-15T06:57:16;-7.34;118.99
70867;HTU21D;58487;53.474;49.470;2023-02-15T06:59:42;-7.36;118.99
70867;HTU21D;58487;53.474;49.470;2023-02-15T07:02:11;-7.39;118.99
70867;HTU21D;58487;53.474;49.470;2023-02-15T07:04:37;-7.37;118.99
70867;HTU21D;58487;53.474;49.470;2023-02-15T07:07:03;-7.38;118.99
70867;HTU21D;58487;53.474;49.470;2023-02-15T07:09:29;-7.35;118.99
70867;HTU21D;58487;53.474;49.470;2023-02-15T07:11:55;-7.30;118.99
70867;HTU21D;58487;53.474;49.470;2023-02-15T07:14:39;-7.44;118.99
70867;HTU21D;58487;53.474;49.470;2023-02-15T07:17:08;-7.53;118.99
70867;HTU21D;58487;53.474;49.470;2023-02-15T07:19:34;-7.52;118.99
70867;HTU21D;58487;53.474;49.470;2023-02-15T07:22:00;-7.32;118.99
70867;HTU21D;58487;53.474;49.470;2023-02-15T07:24:26;-7.31;118.99
70867;HTU21D;58487;53.474;49.470;2023-02-15T07:26:53;-7.40;118.99
70867;HTU21D;58487;53.474;49.470;2023-02-15T07:29:19;-7.25;118.99
70867;HTU21D;58487;53.474;49.470;2023-02-15T07:31:45;-7.21;118.99
70867;HTU21D;58487;53.474;49.470;2023-02-15T07:34:11;-7.12;118.99
70867;HTU21D;58487;53.474;49.470;2023-02-15T07:36:40;-7.07;118.99
70867;HTU21D;58487;53.474;49.470;2023-02-15T07:39:14;-7.08;118.99
70867;HTU21D;58487;53.474;49.470;2023-02-15T07:41:41;-7.09;118.99
70867;HTU21D;58487;53.474;49.470;2023-02-15T07:44:11;-7.02;118.99
70867;HTU21D;58487;53.474;49.470;2023-02-15T07:46:39;-7.03;118.99
70867;HTU21D;58487;53.474;49.470;2023-02-15T07:49:05;-6.87;118.99
70867;HTU21D;58487;53.474;49.470;2023-02-15T07:51:31;-6.77;118.99
70867;HTU21D;58487;53.474;49.470;2023-02-15T07:53:57;-6.82;118.99
70867;HTU21D;58487;53.474;49.470;2023-02-15T07:56:23;-6.77;118.99
70867;HTU21D;58487;53.474;49.470;2023-02-15T07:58:49;-6.66;118.99
70867;HTU21D;58487;53.474;49.470;2023-02-15T08:01:30;-6.50;118.99
70867;HTU21D;58487;53.474;49.470;2023-02-15T08:03:57;-6.56;118.99
70867;HTU21D;58487;53.474;49.470;2023-02-15T08:06:25;-6.50;118.99
70867;HTU21D;58487;53.474;49.470;2023-02-15T08:08:51;-6.29;118.99
70867;HTU21D;58487;53.474;49.470;2023-02-15T08:11:20;-6.09;118.99
70867;HTU21D;58487;53.474;49.470;2023-02-15T08:14:15;-6.07;118.99
70867;HTU21D;58487;53.474;49.470;2023-02-15T08:16:44;-6.12;118.99
70867;HTU21D;58487;53.474;49.470;2023-02-15T08:19:27;-6.14;118.99
70867;HTU21D;58487;53.474;49.470;2023-02-15T08:21:56;-6.04;118.99
70867;HTU21D;58487;53.474;49.470;2023-02-15T08:24:25;-6.03;118.99
70867;HTU21D;58487;53.474;49.470;2023-02-15T08:26:52;-6.03;118.99
70867;HTU21D;58487;53.474;49.470;2023-02-15T08:29:20;-5.90;118.99
70867;HTU21D;58487;53.474;49.470;2023-02-15T08:31:48;-5.77;118.99
70867;HTU21D;58487;53.474;49.470;2023-02-15T08:34:17;-5.84;118.99
70867;HTU21D;58487;53.474;49.470;2023-02-15T08:36:43;-5.59;118.99
70867;HTU21D;58487;53.474;49.470;2023-02-15T08:39:14;-5.56;118.99
70867;HTU21D;58487;53.474;49.470;2023-02-15T08:41:43;-5.32;118.99
70867;HTU21D;58487;53.474;49.470;2023-02-15T08:44:09;-5.29;118.99
70867;HTU21D;58487;53.474;49.470;2023-02-15T08:46:40;-5.23;118.99
70867;HTU21D;58487;53.474;49.470;2023-02-15T08:49:09;-5.35;118.99
70867;HTU21D;58487;53.474;49.470;2023-02-15T08:51:37;-5.50;118.99
70867;HTU21D;58487;53.474;49.470;2023-02-15T08:54:06;-5.41;118.99
70867;HTU21D;58487;53.474;49.470;2023-02-15T08:56:38;-5.53;118.99
70867;HTU21D;58487;53.474;49.470;2023-02-15T08:59:12;-5.37;118.99
70867;HTU21D;58487;53.474;49.470;2023-02-15T09:01:39;-5.34;118.99
70867;HTU21D;58487;53.474;49.470;2023-02-15T09:04:06;-5.49;118.99
70867;HTU21D;58487;53.474;49.470;2023-02-15T09:06:39;-5.76;118.99
70867;HTU21D;58487;53.474;49.470;2023-02-15T09:09:07;-5.62;118.99
70867;HTU21D;58487;53.474;49.470;2023-02-15T09:11:43;-5.35;118.99
70867;HTU21D;58487;53.474;49.470;2023-02-15T09:14:12;-5.25;118.99
70867;HTU21D;58487;53.474;49.470;2023-02-15T09:16:44;-5.03;118.99
70867;HTU21D;58487;53.474;49.470;2023-02-15T09:19:15;-4.89;118.99
70867;HTU21D;58487;53.474;49.470;2023-02-15T09:21:41;-4.86;118.99
70867;HTU21D;58487;53.474;49.470;2023-02-15T09:24:10;-5.01;118.99
70867;HTU21D;58487;53.474;49.470;2023-02-15T09:26:40;-4.98;118.99
70867;HTU21D;58487;53.474;49.470;2023-02-15T09:29:07;-5.14;118.99
70867;HTU21D;58487;53.474;49.470;2023-02-15T09:31:39;-4.96;118.99
70867;HTU21D;58487;53.474;49.470;2023-02-15T09:34:07;-4.65;118.99
70867;HTU21D;58487;53.474;49.470;2023-02-15T09:36:35;-4.56;118.99
70867;HTU21D;58487;53.474;49.470;2023-02-15T09:42:08;-4.54;118.99
70867;HTU21D;58487;53.474;49.470;2023-02-15T09:56:57;-4.50;118.99
70867;HTU21D;58487;53.474;49.470;2023-02-15T10:02:20;-4.17;118.99
70867;HTU21D;58487;53.474;49.470;2023-02-15T10:15:36;-3.28;118.99
70867;HTU21D;58487;53.474;49.470;2023-02-15T10:24:32;-3.64;118.99
70867;HTU21D;58487;53.474;49.470;2023-02-15T10:27:15;-3.67;118.99
70867;HTU21D;58487;53.474;49.470;2023-02-15T10:33:03;-3.71;118.99
70867;HTU21D;58487;53.474;49.470;2023-02-15T10:46:44;-3.70;118.99
70867;HTU21D;58487;53.474;49.470;2023-02-15T10:55:08;-3.69;118.99
70867;HTU21D;58487;53.474;49.470;2023-02-15T11:06:39;-3.89;118.99
70867;HTU21D;58487;53.474;49.470;2023-02-15T11:09:13;-3.83;118.99
70867;HTU21D;58487;53.474;49.470;2023-02-15T11:11:42;-3.61;118.99
70867;HTU21D;58487;53.474;49.470;2023-02-15T11:17:04;-3.57;118.99
70867;HTU21D;58487;53.474;49.470;2023-02-15T11:22:11;-3.69;118.99
70867;HTU21D;58487;53.474;49.470;2023-02-15T11:24:43;-3.91;118.99
70867;HTU21D;58487;53.474;49.470;2023-02-15T11:27:21;-4.10;118.99
70867;HTU21D;58487;53.474;49.470;2023-02-15T11:30:10;-4.00;118.99
70867;HTU21D;58487;53.474;49.470;2023-02-15T11:32:50;-3.93;118.99
70867;HTU21D;58487;53.474;49.470;2023-02-15T11:35:27;-3.78;118.99
70867;HTU21D;58487;53.474;49.470;2023-02-15T11:38:07;-3.78;118.99
70867;HTU21D;58487;53.474;49.470;2023-02-15T11:43:28;-3.82;118.99
70867;HTU21D;58487;53.474;49.470;2023-02-15T11:45:55;-3.77;118.99
70867;HTU21D;58487;53.474;49.470;2023-02-15T11:48:22;-3.90;118.99
70867;HTU21D;58487;53.474;49.470;2023-02-15T11:50:48;-3.83;118.99
70867;HTU21D;58487;53.474;49.470;2023-02-15T11:53:17;-3.72;118.99
70867;HTU21D;58487;53.474;49.470;2023-02-15T11:55:45;-3.85;118.99
70867;HTU21D;58487;53.474;49.470;2023-02-15T11:58:28;-4.10;118.99
70867;HTU21D;58487;53.474;49.470;2023-02-15T12:01:07;-4.40;118.99
70867;HTU21D;58487;53.474;49.470;2023-02-15T12:03:54;-4.55;118.99
70867;HTU21D;58487;53.474;49.470;2023-02-15T12:06:46;-4.49;118.99
70867;HTU21D;58487;53.474;49.470;2023-02-15T12:14:53;-4.75;118.99
70867;HTU21D;58487;53.474;49.470;2023-02-15T12:17:34;-4.89;118.99
70867;HTU21D;58487;53.474;49.470;2023-02-15T12:20:25;-4.79;118.99
70867;HTU21D;58487;53.474;49.470;2023-02-15T12:23:14;-4.79;118.99
70867;HTU21D;58487;53.474;49.470;2023-02-15T12:26:03;-4.90;118.99
70867;HTU21D;58487;53.474;49.470;2023-02-15T12:28:38;-5.02;118.99
70867;HTU21D;58487;53.474;49.470;2023-02-15T12:31:47;-5.20;118.99
70867;HTU21D;58487;53.474;49.470;2023-02-15T12:34:30;-5.37;118.99
70867;HTU21D;58487;53.474;49.470;2023-02-15T12:37:02;-5.48;118.99
70867;HTU21D;58487;53.474;49.470;2023-02-15T12:39:34;-5.56;118.99
70867;HTU21D;58487;53.474;49.470;2023-02-15T12:42:20;-5.55;118.99
70867;HTU21D;58487;53.474;49.470;2023-02-15T12:45:19;-5.49;118.99
70867;HTU21D;58487;53.474;49.470;2023-02-15T12:47:46;-5.56;118.99
70867;HTU21D;58487;53.474;49.470;2023-02-15T12:50:23;-5.64;118.99
70867;HTU21D;58487;53.474;49.470;2023-02-15T12:53:30;-5.67;118.99
70867;HTU21D;58487;53.474;49.470;2023-02-15T12:56:03;-5.67;118.99
70867;HTU21D;58487;53.474;49.470;2023-02-15T12:58:32;-5.70;118.99
70867;HTU21D;58487;53.474;49.470;2023-02-15T13:01:19;-5.82;118.99
70867;HTU21D;58487;53.474;49.470;2023-02-15T13:03:56;-5.87;118.99
70867;HTU21D;58487;53.474;49.470;2023-02-15T13:06:27;-5.89;118.99
70867;HTU21D;58487;53.474;49.470;2023-02-15T13:09:06;-5.90;118.99
70867;HTU21D;58487;53.474;49.470;2023-02-15T13:11:34;-5.98;118.99
70867;HTU21D;58487;53.474;49.470;2023-02-15T13:14:15;-5.98;118.99
70867;HTU21D;58487;53.474;49.470;2023-02-15T13:16:44;-6.06;118.99
70867;HTU21D;58487;53.474;49.470;2023-02-15T13:19:17;-6.09;118.99
70867;HTU21D;58487;53.474;49.470;2023-02-15T13:21:46;-6.16;118.99
70867;HTU21D;58487;53.474;49.470;2023-02-15T13:26:48;-6.23;118.99
70867;HTU21D;58487;53.474;49.470;2023-02-15T13:29:22;-6.21;118.99
70867;HTU21D;58487;53.474;49.470;2023-02-15T13:31:50;-6.23;118.99
70867;HTU21D;58487;53.474;49.470;2023-02-15T13:34:32;-6.30;118.99
70867;HTU21D;58487;53.474;49.470;2023-02-15T13:40:25;-6.41;118.99
70867;HTU21D;58487;53.474;49.470;2023-02-15T13:46:06;-6.48;118.99
70867;HTU21D;58487;53.474;49.470;2023-02-15T13:49:04;-6.55;118.99
70867;HTU21D;58487;53.474;49.470;2023-02-15T14:02:20;-6.60;118.99
70867;HTU21D;58487;53.474;49.470;2023-02-15T14:05:13;-6.64;118.99
70867;HTU21D;58487;53.474;49.470;2023-02-15T14:07:49;-6.62;118.99
70867;HTU21D;58487;53.474;49.470;2023-02-15T14:15:48;-6.66;118.99
70867;HTU21D;58487;53.474;49.470;2023-02-15T14:21:21;-6.79;118.99
70867;HTU21D;58487;53.474;49.470;2023-02-15T14:26:30;-6.75;118.99
70867;HTU21D;58487;53.474;49.470;2023-02-15T14:29:15;-6.76;118.99
70867;HTU21D;58487;53.474;49.470;2023-02-15T14:31:46;-6.85;118.99
70867;HTU21D;58487;53.474;49.470;2023-02-15T14:34:42;-6.90;118.99
70867;HTU21D;58487;53.474;49.470;2023-02-15T14:37:12;-6.96;118.99
70867;HTU21D;58487;53.474;49.470;2023-02-15T14:43:14;-7.00;118.99
70867;HTU21D;58487;53.474;49.470;2023-02-15T14:45:58;-7.04;118.99
70867;HTU21D;58487;53.474;49.470;2023-02-15T14:51:03;-7.09;118.99
70867;HTU21D;58487;53.474;49.470;2023-02-15T15:01:32;-7.09;118.99
70867;HTU21D;58487;53.474;49.470;2023-02-15T15:04:04;-7.11;118.99
70867;HTU21D;58487;53.474;49.470;2023-02-15T15:06:33;-7.20;118.99
70867;HTU21D;58487;53.474;49.470;2023-02-15T15:09:21;-7.18;118.99
70867;HTU21D;58487;53.474;49.470;2023-02-15T15:11:52;-7.25;118.99
70867;HTU21D;58487;53.474;49.470;2023-02-15T15:17:04;-7.32;118.99
70867;HTU21D;58487;53.474;49.470;2023-02-15T15:22:23;-7.38;118.99
70867;HTU21D;58487;53.474;49.470;2023-02-15T15:24:52;-7.37;118.99
70867;HTU21D;58487;53.474;49.470;2023-02-15T15:27:50;-7.34;118.99
70867;HTU21D;58487;53.474;49.470;2023-02-15T15:40:46;-7.47;118.99
70867;HTU21D;58487;53.474;49.470;2023-02-15T15:46:26;-7.48;118.99
70867;HTU21D;58487;53.474;49.470;2023-02-15T15:49:01;-7.49;118.99
70867;HTU21D;58487;53.474;49.470;2023-02-15T15:51:32;-7.50;118.99
70867;HTU21D;58487;53.474;49.470;2023-02-15T15:54:01;-7.55;118.99
70867;HTU21D;58487;53.474;49.470;2023-02-15T15:56:31;-7.54;118.99
70867;HTU21D;58487;53.474;49.470;2023-02-15T15:59:05;-7.54;118.99
70867;HTU21D;58487;53.474;49.470;2023-02-15T16:01:43;-7.54;118.99
70867;HTU21D;58487;53.474;49.470;2023-02-15T16:04:27;-7.50;118.99
70867;HTU21D;58487;53.474;49.470;2023-02-15T16:06:54;-7.47;118.99
70867;HTU21D;58487;53.474;49.470;2023-02-15T16:09:25;-7.55;118.99
70867;HTU21D;58487;53.474;49.470;2023-02-15T16:11:55;-7.45;118.05
70867;HTU21D;58487;53.474;49.470;2023-02-15T16:14:37;-7.47;118.99
70867;HTU21D;58487;53.474;49.470;2023-02-15T16:17:07;-7.57;118.99
70867;HTU21D;58487;53.474;49.470;2023-02-15T16:19:40;-7.60;118.99
70867;HTU21D;58487;53.474;49.470;2023-02-15T16:22:13;-7.62;118.99
70867;HTU21D;58487;53.474;49.470;2023-02-15T16:27:38;-7.57;118.99
70867;HTU21D;58487;53.474;49.470;2023-02-15T16:30:29;-7.65;118.99
70867;HTU21D;58487;53.474;49.470;2023-02-15T16:33:16;-7.77;118.99
70867;HTU21D;58487;53.474;49.470;2023-02-15T16:35:57;-7.76;118.99
70867;HTU21D;58487;53.474;49.470;2023-02-15T16:41:34;-7.70;118.99
70867;HTU21D;58487;53.474;49.470;2023-02-15T16:44:06;-7.69;118.99
70867;HTU21D;58487;53.474;49.470;2023-02-15T16:46:38;-7.76;118.99
70867;HTU21D;58487;53.474;49.470;2023-02-15T16:49:24;-7.80;118.99
70867;HTU21D;58487;53.474;49.470;2023-02-15T16:52:02;-7.87;118.99
70867;HTU21D;58487;53.474;49.470;2023-02-15T16:54:31;-7.84;118.99
70867;HTU21D;58487;53.474;49.470;2023-02-15T16:56:58;-7.80;118.99
70867;HTU21D;58487;53.474;49.470;2023-02-15T17:01:56;-7.87;118.99
70867;HTU21D;58487;53.474;49.470;2023-02-15T17:04:29;-7.83;118.99
70867;HTU21D;58487;53.474;49.470;2023-02-15T17:09:53;-7.92;118.99
70867;HTU21D;58487;53.474;49.470;2023-02-15T17:12:45;-7.91;118.99
70867;HTU21D;58487;53.474;49.470;2023-02-15T17:15:34;-7.93;118.99
70867;HTU21D;58487;53.474;49.470;2023-02-15T17:18:04;-7.98;118.99
70867;HTU21D;58487;53.474;49.470;2023-02-15T17:20:33;-8.00;118.99
70867;HTU21D;58487;53.474;49.470;2023-02-15T17:22:59;-7.98;118.99
70867;HTU21D;58487;53.474;49.470;2023-02-15T17:25:37;-8.09;118.99
70867;HTU21D;58487;53.474;49.470;2023-02-15T17:28:04;-8.10;118.99
70867;HTU21D;58487;53.474;49.470;2023-02-15T17:30:33;-8.09;118.99
70867;HTU21D;58487;53.474;49.470;2023-02-15T17:33:02;-8.08;118.99
70867;HTU21D;58487;53.474;49.470;2023-02-15T17:35:30;-8.25;118.99
70867;HTU21D;58487;53.474;49.470;2023-02-15T17:38:19;-8.24;118.99
70867;HTU21D;58487;53.474;49.470;2023-02-15T17:40:45;-8.25;118.99
70867;HTU21D;58487;53.474;49.470;2023-02-15T17:43:11;-8.19;118.99
70867;HTU21D;58487;53.474;49.470;2023-02-15T17:45:56;-8.27;118.99
70867;HTU21D;58487;53.474;49.470;2023-02-15T17:48:34;-8.28;118.99
70867;HTU21D;58487;53.474;49.470;2023-02-15T17:51:02;-8.25;118.99
70867;HTU21D;58487;53.474;49.470;2023-02-15T17:53:29;-8.16;118.99
70867;HTU21D;58487;53.474;49.470;2023-02-15T17:55:56;-8.21;118.99
70867;HTU21D;58487;53.474;49.470;2023-02-15T17:58:22;-8.19;118.99
70867;HTU21D;58487;53.474;49.470;2023-02-15T18:00:51;-8.07;118.99
70867;HTU21D;58487;53.474;49.470;2023-02-15T18:03:45;-8.05;118.99
70867;HTU21D;58487;53.474;49.470;2023-02-15T18:06:31;-8.07;113.37
70867;HTU21D;58487;53.474;49.470;2023-02-15T18:09:18;-8.05;112.91
70867;HTU21D;58487;53.474;49.470;2023-02-15T18:14:47;-8.14;118.99
70867;HTU21D;58487;53.474;49.470;2023-02-15T18:17:14;-8.19;118.99
70867;HTU21D;58487;53.474;49.470;2023-02-15T18:19:42;-8.21;118.99
70867;HTU21D;58487;53.474;49.470;2023-02-15T18:22:11;-8.22;118.99
70867;HTU21D;58487;53.474;49.470;2023-02-15T18:24:37;-8.15;118.99
70867;HTU21D;58487;53.474;49.470;2023-02-15T18:27:04;-8.18;118.99
70867;HTU21D;58487;53.474;49.470;2023-02-15T18:29:31;-8.14;118.99
70867;HTU21D;58487;53.474;49.470;2023-02-15T18:31:58;-8.21;118.99
70867;HTU21D;58487;53.474;49.470;2023-02-15T18:34:35;-8.31;118.99
70867;HTU21D;58487;53.474;49.470;2023-02-15T18:37:05;-8.33;118.99
70867;HTU21D;58487;53.474;49.470;2023-02-15T18:39:48;-8.33;118.99
70867;HTU21D;58487;53.474;49.470;2023-02-15T18:42:19;-8.35;118.99
70867;HTU21D;58487;53.474;49.470;2023-02-15T18:44:47;-8.36;118.99
70867;HTU21D;58487;53.474;49.470;2023-02-15T18:47:13;-8.36;118.99
70867;HTU21D;58487;53.474;49.470;2023-02-15T18:49:39;-8.30;118.99
70867;HTU21D;58487;53.474;49.470;2023-02-15T18:52:09;-8.37;118.99
70867;HTU21D;58487;53.474;49.470;2023-02-15T18:54:39;-8.44;118.99
70867;HTU21D;58487;53.474;49.470;2023-02-15T18:57:09;-8.42;118.99
70867;HTU21D;58487;53.474;49.470;2023-02-15T18:59:37;-8.42;118.99
70867;HTU21D;58487;53.474;49.470;2023-02-15T19:02:12;-8.38;118.99
70867;HTU21D;58487;53.474;49.470;2023-02-15T19:04:38;-8.39;118.99
70867;HTU21D;58487;53.474;49.470;2023-02-15T19:07:05;-8.38;118.99
70867;HTU21D;58487;53.474;49.470;2023-02-15T19:09:34;-8.28;118.99
70867;HTU21D;58487;53.474;49.470;2023-02-15T19:12:00;-8.40;118.99
70867;HTU21D;58487;53.474;49.470;2023-02-15T19:14:29;-8.37;118.99
70867;HTU21D;58487;53.474;49.470;2023-02-15T19:16:57;-8.22;118.99
70867;HTU21D;58487;53.474;49.470;2023-02-15T19:19:24;-8.28;118.99
70867;HTU21D;58487;53.474;49.470;2023-02-15T19:21:50;-8.38;118.99
70867;HTU21D;58487;53.474;49.470;2023-02-15T19:24:20;-8.40;118.99
70867;HTU21D;58487;53.474;49.470;2023-02-15T19:26:47;-8.38;118.99
70867;HTU21D;58487;53.474;49.470;2023-02-15T19:29:23;-8.41;118.99
70867;HTU21D;58487;53.474;49.470;2023-02-15T19:31:49;-8.41;118.99
70867;HTU21D;58487;53.474;49.470;2023-02-15T19:34:16;-8.36;118.99
70867;HTU21D;58487;53.474;49.470;2023-02-15T19:36:45;-8.33;118.99
70867;HTU21D;58487;53.474;49.470;2023-02-15T19:39:38;-8.33;118.99
70867;HTU21D;58487;53.474;49.470;2023-02-15T19:42:05;-8.36;118.99
70867;HTU21D;58487;53.474;49.470;2023-02-15T19:44:31;-8.28;118.99
70867;HTU21D;58487;53.474;49.470;2023-02-15T19:46:57;-8.29;118.99
70867;HTU21D;58487;53.474;49.470;2023-02-15T19:49:23;-8.30;118.99
70867;HTU21D;58487;53.474;49.470;2023-02-15T19:51:49;-8.31;118.99
70867;HTU21D;58487;53.474;49.470;2023-02-15T19:54:25;-8.42;118.99
70867;HTU21D;58487;53.474;49.470;2023-02-15T19:56:53;-8.29;118.99
70867;HTU21D;58487;53.474;49.470;2023-02-15T19:59:23;-8.23;118.99
70867;HTU21D;58487;53.474;49.470;2023-02-15T20:01:50;-8.33;118.99
70867;HTU21D;58487;53.474;49.470;2023-02-15T20:04:16;-8.35;118.99
70867;HTU21D;58487;53.474;49.470;2023-02-15T20:06:43;-8.33;118.99
70867;HTU21D;58487;53.474;49.470;2023-02-15T20:09:23;-8.30;118.99
70867;HTU21D;58487;53.474;49.470;2023-02-15T20:11:51;-8.26;118.99
70867;HTU21D;58487;53.474;49.470;2023-02-15T20:14:18;-8.27;118.99
70867;HTU21D;58487;53.474;49.470;2023-02-15T20:16:45;-8.24;118.99
70867;HTU21D;58487;53.474;49.470;2023-02-15T20:19:11;-8.24;118.99
70867;HTU21D;58487;53.474;49.470;2023-02-15T20:21:39;-8.22;118.99
70867;HTU21D;58487;53.474;49.470;2023-02-15T20:24:06;-8.16;118.99
70867;HTU21D;58487;53.474;49.470;2023-02-15T20:26:32;-8.14;118.99
70867;HTU21D;58487;53.474;49.470;2023-02-15T20:28:59;-8.13;118.99
70867;HTU21D;58487;53.474;49.470;2023-02-15T20:31:25;-8.11;118.99